Tecumseh — WTW9257 — position and weather

sailwx.info

Track history (hours):
 
Tides and Currents Weather Stations Pressure Air Temp Water Temp Dewpoint Dewpoint Depression Visibility Wind Speed Wind Dir Waves Ship Positions

Tecumseh

More information available from US FCC via Universal Licensing System and Coast Guard Vessel Documentation Center.

Last reported at 2014-Jul-24 04:31 UTC. Time now 2014-Jul-24 05:52 UTC.
Position N 48°27' W 124°51'.

Length 90 m; draft 4.9 m.

Type: Tow > 200 m length. MMSI: 367133160.

Date/timePositionNaut miles runAvg speedWind from/ knotsBaromVisibWave heightAir tempDewpointWater temp
2014-Jul-24 04:31N 48°27' W 124°51'136 6.5
2014-Jul-23 07:33N 46°12' W 124°25'7 7.5
2014-Jul-23 06:32N 46°05' W 124°23'8 7.9
2014-Jul-23 05:31N 45°57' W 124°23'9 7.7
2014-Jul-23 04:23N 45°48' W 124°24'7 7.8
2014-Jul-23 03:31N 45°41' W 124°24'  
2014-Jul-20 14:22N 38°20' W 124°00'6 7.2
2014-Jul-20 13:33N 38°15' W 123°57'7 7.3
2014-Jul-20 12:33N 38°08' W 123°53'7 7.3
2014-Jul-20 11:33N 38°01' W 123°49'7 7.4
2014-Jul-20 10:33N 37°55' W 123°46'8 7.3
2014-Jul-20 09:31N 37°48' W 123°42'7 7.1
2014-Jul-20 08:33N 37°41' W 123°38'8 7.0
2014-Jul-20 07:22N 37°35' W 123°32'6 7.4
2014-Jul-20 06:33N 37°33' W 123°25'7 7.2
2014-Jul-20 05:33N 37°31' W 123°16'7 6.8
2014-Jul-20 04:33N 37°33' W 123°08'7 7.4
2014-Jul-20 03:33N 37°37' W 123°00'8 7.2
2014-Jul-20 02:30N 37°41' W 122°52'7 7.7
2014-Jul-20 01:33N 37°45' W 122°44'7 7.1
2014-Jul-20 00:33N 37°47' W 122°35'6 5.6
2014-Jul-19 23:33N 37°49' W 122°29'4 4.4
2014-Jul-19 22:33N 37°52' W 122°25'4 3.8
2014-Jul-19 21:34N 37°55' W 122°26'3 3.2
2014-Jul-19 20:33N 37°54' W 122°22'1 0.7
2014-Jul-19 19:33N 37°55' W 122°22'0 0.0
2014-Jul-19 18:33N 37°55' W 122°22'0 0.0
2014-Jul-19 17:33N 37°55' W 122°22'0 0.0
2014-Jul-19 16:33N 37°55' W 122°22'0 0.0
2014-Jul-19 15:33N 37°55' W 122°22'0 0.0
2014-Jul-19 14:33N 37°55' W 122°22'0 0.0
2014-Jul-19 13:33N 37°55' W 122°22'0 0.0
2014-Jul-19 12:33N 37°55' W 122°22'0 0.0
2014-Jul-19 11:33N 37°55' W 122°22'0 0.0
2014-Jul-19 10:33N 37°55' W 122°22'0 0.0
2014-Jul-19 09:33N 37°55' W 122°22'0 0.0
2014-Jul-19 08:30N 37°55' W 122°22'0 0.0
2014-Jul-19 07:33N 37°55' W 122°22'0 0.0
2014-Jul-19 06:32N 37°55' W 122°22'0 0.0
2014-Jul-19 05:33N 37°55' W 122°22'0 0.0
2014-Jul-19 04:33N 37°55' W 122°22'0 0.0
2014-Jul-19 03:32N 37°55' W 122°22'0 0.0
2014-Jul-19 02:32N 37°55' W 122°22'0 0.0
2014-Jul-19 01:33N 37°55' W 122°22'0 0.0
2014-Jul-19 00:32N 37°55' W 122°22'0 0.0
2014-Jul-18 23:32N 37°55' W 122°22'0 0.0
2014-Jul-18 22:32N 37°55' W 122°22'0 0.0
2014-Jul-18 21:33N 37°55' W 122°22'3 3.2
2014-Jul-18 20:34N 37°54' W 122°26'4 4.4
2014-Jul-18 19:34N 37°49' W 122°25'6 6.1
2014-Jul-18 18:33N 37°48' W 122°32'5 5.3
2014-Jul-18 17:34N 37°46' W 122°38'6 6.1
2014-Jul-18 16:33N 37°42' W 122°44'6 6.4
2014-Jul-18 15:33N 37°38' W 122°51'6 5.9
2014-Jul-18 14:33N 37°35' W 122°57'6 6.1
2014-Jul-18 13:33N 37°32' W 123°03'7 5.6
2014-Jul-18 12:18N 37°28' W 123°11'4 5.6
2014-Jul-18 11:33N 37°27' W 123°16'6 5.6
2014-Jul-18 10:33N 37°26' W 123°23'5 5.5
2014-Jul-18 09:33N 37°27' W 123°30'7 5.7
2014-Jul-18 08:18N 37°29' W 123°38'7 5.7
2014-Jul-18 07:08N 37°35' W 123°42'16 5.7
2014-Jul-18 04:25N 37°49' W 123°48'8 5.9
2014-Jul-18 03:04N 37°57' W 123°52'3 4.5
2014-Jul-18 02:22N 37°60' W 123°53'5 4.9
2014-Jul-18 01:26N 38°04' W 123°55'10 5.5
2014-Jul-17 23:33N 38°14' W 123°60'11 5.4
2014-Jul-17 21:32N 38°24' W 124°04'6 5.6
2014-Jul-17 20:32N 38°29' W 124°07'  
2014-Jul-15 03:09N 44°51' W 124°45'7 6.7
2014-Jul-15 02:07N 44°58' W 124°46'38 6.5
2014-Jul-14 20:20N 45°35' W 124°53'29 6.1
2014-Jul-14 15:32N 46°04' W 124°58'15 6.4
2014-Jul-14 13:15N 46°19' W 125°01'5 6.1
2014-Jul-14 12:22N 46°24' W 125°02'6 6.1
2014-Jul-14 11:25N 46°30' W 125°03'10 5.6
2014-Jul-14 09:33N 46°40' W 125°05'  
Track history (hours):
 
Tides and Currents Weather Stations Pressure Air Temp Water Temp Dewpoint Dewpoint Depression Visibility Wind Speed Wind Dir Waves Ship Positions

Tecumseh

More information available from US FCC via Universal Licensing System and Coast Guard Vessel Documentation Center.

Last reported at 2014-Jul-24 04:31 UTC. Time now 2014-Jul-24 05:52 UTC.
Position N 48°27' W 124°51'.

Length 90 m; draft 4.9 m.

Type: Tow > 200 m length. MMSI: 367133160.

Date/timePositionNaut miles runAvg speedWind from/ knotsBaromVisibWave heightAir tempDewpointWater temp
2014-Jul-24 04:31N 48°27' W 124°51'136 6.5
2014-Jul-23 07:33N 46°12' W 124°25'7 7.5
2014-Jul-23 06:32N 46°05' W 124°23'8 7.9
2014-Jul-23 05:31N 45°57' W 124°23'9 7.7
2014-Jul-23 04:23N 45°48' W 124°24'7 7.8
2014-Jul-23 03:31N 45°41' W 124°24'  
2014-Jul-20 14:22N 38°20' W 124°00'6 7.2
2014-Jul-20 13:33N 38°15' W 123°57'7 7.3
2014-Jul-20 12:33N 38°08' W 123°53'7 7.3
2014-Jul-20 11:33N 38°01' W 123°49'7 7.4
2014-Jul-20 10:33N 37°55' W 123°46'8 7.3
2014-Jul-20 09:31N 37°48' W 123°42'7 7.1
2014-Jul-20 08:33N 37°41' W 123°38'8 7.0
2014-Jul-20 07:22N 37°35' W 123°32'6 7.4
2014-Jul-20 06:33N 37°33' W 123°25'7 7.2
2014-Jul-20 05:33N 37°31' W 123°16'7 6.8
2014-Jul-20 04:33N 37°33' W 123°08'7 7.4
2014-Jul-20 03:33N 37°37' W 123°00'8 7.2
2014-Jul-20 02:30N 37°41' W 122°52'7 7.7
2014-Jul-20 01:33N 37°45' W 122°44'7 7.1
2014-Jul-20 00:33N 37°47' W 122°35'6 5.6
2014-Jul-19 23:33N 37°49' W 122°29'4 4.4
2014-Jul-19 22:33N 37°52' W 122°25'4 3.8
2014-Jul-19 21:34N 37°55' W 122°26'3 3.2
2014-Jul-19 20:33N 37°54' W 122°22'1 0.7
2014-Jul-19 19:33N 37°55' W 122°22'0 0.0
2014-Jul-19 18:33N 37°55' W 122°22'0 0.0
2014-Jul-19 17:33N 37°55' W 122°22'0 0.0
2014-Jul-19 16:33N 37°55' W 122°22'0 0.0
2014-Jul-19 15:33N 37°55' W 122°22'0 0.0
2014-Jul-19 14:33N 37°55' W 122°22'0 0.0
2014-Jul-19 13:33N 37°55' W 122°22'0 0.0
2014-Jul-19 12:33N 37°55' W 122°22'0 0.0
2014-Jul-19 11:33N 37°55' W 122°22'0 0.0
2014-Jul-19 10:33N 37°55' W 122°22'0 0.0
2014-Jul-19 09:33N 37°55' W 122°22'0 0.0
2014-Jul-19 08:30N 37°55' W 122°22'0 0.0
2014-Jul-19 07:33N 37°55' W 122°22'0 0.0
2014-Jul-19 06:32N 37°55' W 122°22'0 0.0
2014-Jul-19 05:33N 37°55' W 122°22'0 0.0
2014-Jul-19 04:33N 37°55' W 122°22'0 0.0
2014-Jul-19 03:32N 37°55' W 122°22'0 0.0
2014-Jul-19 02:32N 37°55' W 122°22'0 0.0
2014-Jul-19 01:33N 37°55' W 122°22'0 0.0
2014-Jul-19 00:32N 37°55' W 122°22'0 0.0
2014-Jul-18 23:32N 37°55' W 122°22'0 0.0
2014-Jul-18 22:32N 37°55' W 122°22'0 0.0
2014-Jul-18 21:33N 37°55' W 122°22'3 3.2
2014-Jul-18 20:34N 37°54' W 122°26'4 4.4
2014-Jul-18 19:34N 37°49' W 122°25'6 6.1
2014-Jul-18 18:33N 37°48' W 122°32'5 5.3
2014-Jul-18 17:34N 37°46' W 122°38'6 6.1
2014-Jul-18 16:33N 37°42' W 122°44'6 6.4
2014-Jul-18 15:33N 37°38' W 122°51'6 5.9
2014-Jul-18 14:33N 37°35' W 122°57'6 6.1
2014-Jul-18 13:33N 37°32' W 123°03'7 5.6
2014-Jul-18 12:18N 37°28' W 123°11'4 5.6
2014-Jul-18 11:33N 37°27' W 123°16'6 5.6
2014-Jul-18 10:33N 37°26' W 123°23'5 5.5
2014-Jul-18 09:33N 37°27' W 123°30'7 5.7
2014-Jul-18 08:18N 37°29' W 123°38'7 5.7
2014-Jul-18 07:08N 37°35' W 123°42'16 5.7
2014-Jul-18 04:25N 37°49' W 123°48'8 5.9
2014-Jul-18 03:04N 37°57' W 123°52'3 4.5
2014-Jul-18 02:22N 37°60' W 123°53'5 4.9
2014-Jul-18 01:26N 38°04' W 123°55'10 5.5
2014-Jul-17 23:33N 38°14' W 123°60'11 5.4
2014-Jul-17 21:32N 38°24' W 124°04'6 5.6
2014-Jul-17 20:32N 38°29' W 124°07'  
2014-Jul-15 03:09N 44°51' W 124°45'7 6.7
2014-Jul-15 02:07N 44°58' W 124°46'38 6.5
2014-Jul-14 20:20N 45°35' W 124°53'29 6.1
2014-Jul-14 15:32N 46°04' W 124°58'15 6.4
2014-Jul-14 13:15N 46°19' W 125°01'5 6.1
2014-Jul-14 12:22N 46°24' W 125°02'6 6.1
2014-Jul-14 11:25N 46°30' W 125°03'10 5.6
2014-Jul-14 09:33N 46°40' W 125°05'  

Dump ship's entire track history